Terminal Aerodrome Forecast
Issued by NWS

Home | Current Version | Previous Version | Text Only | Print | Product List | Glossary On
Versions: 1 2 3 4 5 6 7 8 9 10 11 12 13 14 15 16 17 18 19 20 21 22
000
FTUS45 KBOU 281122
TAFAPA
TAF
KAPA 281122Z 2812/2912 20008KT P6SM SCT250
     FM281500 15005KT P6SM FEW250
     FM281800 09007KT P6SM FEW250
     FM290100 14007KT P6SM FEW250
     FM290400 20008KT P6SM SKC=

USA.gov is the U.S. government's official web portal to all federal, state and local government web resources and services.